Aérodrome :
LOGIN :

S'inscrire | Disclaimer

   EN    FR    IT 

 










Légende :    VFR   VFR Marginal   IFR   IFR Intensif   IFR Très Intensif
Visi : 
Plafond : 
>= 8 km
>= 3000ft
5 à 8 km
1000 à 3000 ft
1500m à 5 km
500 à 1000 ft
800 à 1500m
200 à 500 ft
< 800m
< 200 ft
Symboles :   Orages  Brouillard  Fortes neiges  Fortes précipitations  Vent > 20 kt
SIGMETs :   Divers  Orages  Givrage  Turbulence  Onde Orograph.  Cendres Volcan.







- Altitude de l'aérodrome : 408 ft
- Code IATA : FKB


EDSB - Karlsruhe Baden Baden

DERNIER METAR :
  • 291050Z 24006KT 9999 SCT043 13/02 Q1017

METARs EXPIRÉS :
  • 291020Z 22007KT 9999 SCT043 13/01 Q1018
  • 290950Z 21006KT 9999 SCT040 13/03 Q1018
  • 290920Z 23005KT 9999 FEW044 12/04 Q1018
  • 290850Z 22005KT 9999 FEW041 11/04 Q1018
  • 290820Z 23005KT CAVOK 11/03 Q1018

TAF TAF EDSB
Valide du 29 à 06h jusqu'au 30 à 06h UTC


290500Z 2906/3006 21006KT 9999 FEW045
BECMG 2909/2912 33005KT
BECMG 2916/2918 04005KT
Pas de NOTAMs connus pour ce terrain.



MET'MAP, la Météo Aéronautique d'un coup d'oeil ! - Copyright ORBIFLY Décembre 2007 - Disclaimer

ORBIFLY MET'MAP TEAM :

Programmation & Développement : Alexandra Zaïnal
Conception & Développement : Baudouin d'Aumeries
Co-Programmation & Développement : Marc-Olivier Méhu
Soutien technique & logistique : Manuel Goepfert

Contact : metmap@orbifly.com




SOURCES & CREDITS :

   NOAA